M V_whaling City Exp — WDB8158 — position and weather

sailwx.info

Track history (hours):
 
Tides and Currents Weather Stations Pressure Air Temp Water Temp Dewpoint Dewpoint Depression Visibility Wind Speed Wind Dir Waves Ship Positions

M V_whaling City Exp

Owner: Champlin's Water Taxi, Inc., Block Island, RI. More information available from US FCC via Universal Licensing System.

Last reported at 2017-Oct-28 03:16 UTC. Time now 2017-Nov-21 04:46 UTC.
Position N 40°25' W 074°02'.
Warning: this ship's position is 24 days out of date.

; draft 3.4 m.

Type: High speed craft. MMSI: 366953970.

Date/timePositionNaut miles runAvg speedWind from/ knotsBaromVisibWave heightAir tempDewpointWater temp
2017-Oct-28 03:16N 40°25' W 074°02'2 5.3
2017-Oct-28 02:59N 40°25' W 074°00'613.5
2017-Oct-28 02:30N 40°31' W 074°02'1122.4
2017-Oct-28 02:00N 40°42' W 074°00'2 4.5
2017-Oct-28 01:30N 40°44' W 073°58'1019.5
2017-Oct-28 01:01N 40°35' W 074°02'1012.0
2017-Oct-28 00:10N 40°25' W 073°60'  
2017-Oct-22 00:48N 40°25' W 074°02'2 6.3
2017-Oct-22 00:30N 40°25' W 073°60'0 0.0
2017-Oct-21 23:59N 40°25' W 073°60'2 3.4
2017-Oct-21 23:30N 40°25' W 074°02'714.8
2017-Oct-21 23:00N 40°33' W 074°02'1019.4
2017-Oct-21 22:30N 40°42' W 074°00'917.9
2017-Oct-21 22:00N 40°51' W 073°57'10 1.0
2017-Oct-21 12:18N 41°00' W 073°53'826.2
2017-Oct-21 12:01N 40°53' W 073°56'816.5
2017-Oct-21 11:30N 40°45' W 074°01'3 5.9
2017-Oct-21 10:59N 40°42' W 074°00'2 4.6
2017-Oct-21 10:30N 40°40' W 074°01'1325.4
2017-Oct-21 10:00N 40°27' W 074°02'2 4.1
2017-Oct-21 09:30N 40°25' W 074°02'  
Track history (hours):
 
Tides and Currents Weather Stations Pressure Air Temp Water Temp Dewpoint Dewpoint Depression Visibility Wind Speed Wind Dir Waves Ship Positions

M V_whaling City Exp

Owner: Champlin's Water Taxi, Inc., Block Island, RI. More information available from US FCC via Universal Licensing System.

Last reported at 2017-Oct-28 03:16 UTC. Time now 2017-Nov-21 04:46 UTC.
Position N 40°25' W 074°02'.
Warning: this ship's position is 24 days out of date.

; draft 3.4 m.

Type: High speed craft. MMSI: 366953970.

Date/timePositionNaut miles runAvg speedWind from/ knotsBaromVisibWave heightAir tempDewpointWater temp
2017-Oct-28 03:16N 40°25' W 074°02'2 5.3
2017-Oct-28 02:59N 40°25' W 074°00'613.5
2017-Oct-28 02:30N 40°31' W 074°02'1122.4
2017-Oct-28 02:00N 40°42' W 074°00'2 4.5
2017-Oct-28 01:30N 40°44' W 073°58'1019.5
2017-Oct-28 01:01N 40°35' W 074°02'1012.0
2017-Oct-28 00:10N 40°25' W 073°60'  
2017-Oct-22 00:48N 40°25' W 074°02'2 6.3
2017-Oct-22 00:30N 40°25' W 073°60'0 0.0
2017-Oct-21 23:59N 40°25' W 073°60'2 3.4
2017-Oct-21 23:30N 40°25' W 074°02'714.8
2017-Oct-21 23:00N 40°33' W 074°02'1019.4
2017-Oct-21 22:30N 40°42' W 074°00'917.9
2017-Oct-21 22:00N 40°51' W 073°57'10 1.0
2017-Oct-21 12:18N 41°00' W 073°53'826.2
2017-Oct-21 12:01N 40°53' W 073°56'816.5
2017-Oct-21 11:30N 40°45' W 074°01'3 5.9
2017-Oct-21 10:59N 40°42' W 074°00'2 4.6
2017-Oct-21 10:30N 40°40' W 074°01'1325.4
2017-Oct-21 10:00N 40°27' W 074°02'2 4.1
2017-Oct-21 09:30N 40°25' W 074°02'  

Dump ship's entire track history